Aérodrome :
LOGIN :

S'inscrire | Disclaimer

   EN    FR    IT 

 










Légende :    VFR   VFR Marginal   IFR   IFR Intensif   IFR Très Intensif
Visi : 
Plafond : 
>= 8 km
>= 3000ft
5 à 8 km
1000 à 3000 ft
1500m à 5 km
500 à 1000 ft
800 à 1500m
200 à 500 ft
< 800m
< 200 ft
Symboles :   Orages  Brouillard  Fortes neiges  Fortes précipitations  Vent > 20 kt
SIGMETs :   Divers  Orages  Givrage  Turbulence  Onde Orograph.  Cendres Volcan.






- Altitude de l'aérodrome : 256 ft
- Code IATA : KUN


EYKA - Kaunas

DERNIER METAR :
  • 021320Z 11005KT 9999 OVC010 M03/M06 Q1028 R08/190095

METARs EXPIRÉS :
  • 021250Z 11007KT 080V140 9000 OVC009 M03/M06 Q1028 R08/190095
  • 021220Z 10009KT 8000 OVC008 M04/M06 Q1028 R08/190095
  • 021150Z 11006KT 070V140 8000 BKN007 M04/M06 Q1029 R08/190095
  • 021120Z 10007KT 9000 BKN007 OVC009 M04/M07 Q1029 R08/190095
  • 021050Z 10007KT 070V130 9000 SCT008 M04/M07 Q1029 R08/190095

TAF TAF EYKA
Valide du 02 à 12h jusqu'au 03 à 12h UTC


021103Z 0212/0312 VRB05KT 6000 SCT005 BKN015
TEMPO 0212/0221 BKN010
BECMG 0221/0222 OVC010
TEMPO 0300/0309 3000 SN BR BKN005
BECMG 0309/0310 15015KT OVC015



MET'MAP, la Météo Aéronautique d'un coup d'oeil ! - Copyright ORBIFLY Décembre 2007 - Disclaimer

ORBIFLY MET'MAP TEAM :

Programmation & Développement : Alexandra Zaïnal
Sur une idée originale de : Baudouin d'Aumeries
Assistance à la programmation : Marc-Olivier Méhu
Soutien technique & logistique : Manuel Goepfert

Contact : metmap@orbifly.com




SOURCES & CREDITS :

   NOAA